Spring Green, Wisconsin
Current Conditions -  °F | °C
As of 4:56 PM on Saturday 25 Oct 2014 (Local Time) from KLNR Reporting Station
Clear Clear  
Wind Chill: 69°   Ceiling: Unl
Heat Index: 69°   Visibility: 10mi
Dew Point: 24°   Wind: 20mph
Humidity: 18%   Direction: 300°WNW
Pressure: 29.96"   Gusts: 28mph
Location:  43.18°N, 90.07°W
Report Text: KLNR 252156Z AUTO 30017G24KT 10SM CLR 21/M04 A2996 RMK AO2 PK WND 28026/2103 SLP138 T02061044
Loading
Personal Weather Stations






























Interactive Weather Map
Tropical Storm Tracking
New forecast layout! Learn more

10-Day Weather Forecast

Advertisements
Track Severe Weather on mobile